Time;durP1;ratioP1;P1;durP2;ratioP2;P2;SDS_P1;SDS_P2;PMS_P1;PMS_P2;Temp;Humidity;BMP_temperature;BMP_pressure;BME280_temperature;BME280_humidity;BME280_pressure;Samples;Min_cycle;Max_cycle;Signal;HPM_P1;HPM_P2
2023/06/30 00:00:40;;;;;;;10.32;2.58;;;;;;;;;;5111711;27;20114;-72
2023/06/30 00:03:06;;;;;;;6.32;2.28;;;;;;;;;;5109629;28;20046;-72
2023/06/30 00:05:32;;;;;;;17.02;3.50;;;;;;;;;;5110303;28;20120;-72
2023/06/30 00:07:59;;;;;;;11.63;2.22;;;;;;;;;;5111664;28;20138;-72
2023/06/30 00:10:25;;;;;;;11.25;2.75;;;;;;;;;;5110371;28;20083;-72
2023/06/30 00:12:52;;;;;;;9.43;2.67;;;;;;;;;;5110719;28;20394;-72
2023/06/30 00:15:18;;;;;;;9.88;2.70;;;;;;;;;;5109151;28;20064;-72
2023/06/30 00:17:44;;;;;;;10.32;2.65;;;;;;;;;;5111659;28;20380;-72
2023/06/30 00:20:11;;;;;;;10.82;2.95;;;;;;;;;;5111283;28;20042;-72
2023/06/30 00:22:38;;;;;;;9.95;3.15;;;;;;;;;;5110393;28;20059;-72
2023/06/30 00:25:04;;;;;;;8.98;2.63;;;;;;;;;;5110071;28;20048;-72
2023/06/30 00:27:31;;;;;;;10.00;2.92;;;;;;;;;;5109040;28;20387;-72
2023/06/30 00:29:57;;;;;;;9.80;2.80;;;;;;;;;;5109138;28;20088;-72
2023/06/30 00:32:24;;;;;;;10.15;2.63;;;;;;;;;;5110291;28;20056;-72
2023/06/30 00:34:50;;;;;;;10.07;3.50;;;;;;;;;;5110730;28;20157;-72
2023/06/30 00:37:16;;;;;;;9.98;3.28;;;;;;;;;;5109369;28;20043;-72
2023/06/30 00:39:42;;;;;;;11.25;4.18;;;;;;;;;;5110816;28;20090;-72
2023/06/30 00:42:09;;;;;;;11.07;4.80;;;;;;;;;;5093688;28;20044;-72
2023/06/30 00:44:35;;;;;;;9.70;4.43;;;;;;;;;;5105921;27;20050;-72
2023/06/30 00:47:02;;;;;;;11.20;4.30;;;;;;;;;;5110607;28;20051;-72
2023/06/30 00:49:31;;;;;;;9.13;4.32;;;;;;;;;;5112255;28;20055;-72
2023/06/30 00:51:58;;;;;;;16.52;3.75;;;;;;;;;;5110806;28;20126;-72
2023/06/30 00:54:24;;;;;;;12.65;3.13;;;;;;;;;;5110808;28;20052;-72
2023/06/30 00:56:51;;;;;;;15.05;3.00;;;;;;;;;;5107523;28;20074;-72
2023/06/30 00:59:17;;;;;;;11.38;3.03;;;;;;;;;;5109504;28;20444;-72
2023/06/30 01:01:43;;;;;;;8.05;2.53;;;;;;;;;;5113910;28;20038;-72
2023/06/30 01:04:16;;;;;;;9.93;2.55;;;;;;;;;;5109543;28;20058;-72
2023/06/30 01:06:54;;;;;;;10.77;3.45;;;;;;;;;;5109680;28;20082;-72
2023/06/30 01:09:22;;;;;;;9.02;2.63;;;;;;;;;;5115036;27;20040;-72
2023/06/30 01:11:49;;;;;;;12.57;2.70;;;;;;;;;;5112434;28;20130;-72
2023/06/30 01:14:16;;;;;;;11.10;2.95;;;;;;;;;;5111833;28;20047;-72
2023/06/30 01:16:43;;;;;;;10.52;2.75;;;;;;;;;;5113042;28;20036;-72
2023/06/30 01:19:33;;;;;;;8.68;2.58;;;;;;;;;;5113403;28;20047;-72
2023/06/30 01:22:03;;;;;;;8.55;2.58;;;;;;;;;;5122437;27;20482;-72
2023/06/30 01:24:34;;;;;;;8.63;2.88;;;;;;;;;;5114655;28;20047;-72
2023/06/30 01:27:00;;;;;;;11.43;2.45;;;;;;;;;;5111631;28;20055;-72
2023/06/30 01:29:26;;;;;;;14.13;2.70;;;;;;;;;;5113614;28;20071;-72
2023/06/30 01:31:53;;;;;;;7.65;2.08;;;;;;;;;;5114760;28;20036;-72
2023/06/30 01:34:19;;;;;;;9.23;2.60;;;;;;;;;;5110517;27;20550;-72
2023/06/30 01:36:45;;;;;;;6.05;2.50;;;;;;;;;;5111043;27;20040;-72
2023/06/30 01:39:11;;;;;;;10.18;2.38;;;;;;;;;;5113221;27;20071;-72
2023/06/30 01:41:38;;;;;;;10.75;2.28;;;;;;;;;;5113379;27;20035;-72
2023/06/30 01:44:04;;;;;;;11.32;2.53;;;;;;;;;;5113540;28;20067;-72
2023/06/30 01:46:30;;;;;;;6.15;2.42;;;;;;;;;;5114452;28;20051;-72
2023/06/30 01:48:57;;;;;;;9.40;2.53;;;;;;;;;;5111881;28;20051;-72
2023/06/30 01:51:23;;;;;;;7.90;2.45;;;;;;;;;;5108483;27;20040;-72
2023/06/30 01:53:49;;;;;;;10.50;2.90;;;;;;;;;;5112256;28;20105;-72
2023/06/30 01:56:15;;;;;;;9.25;2.60;;;;;;;;;;5112199;28;20143;-72
2023/06/30 01:58:42;;;;;;;10.73;2.58;;;;;;;;;;5112330;28;20052;-72
2023/06/30 02:01:08;;;;;;;11.40;2.45;;;;;;;;;;5112643;28;20092;-72
2023/06/30 02:03:35;;;;;;;6.55;2.33;;;;;;;;;;5112978;28;20048;-72
2023/06/30 02:06:02;;;;;;;6.07;2.65;;;;;;;;;;5108786;27;20040;-72
2023/06/30 02:08:29;;;;;;;5.10;2.13;;;;;;;;;;5112640;27;20397;-72
2023/06/30 02:10:55;;;;;;;7.53;2.65;;;;;;;;;;5112640;28;20035;-72
2023/06/30 02:13:21;;;;;;;5.28;1.98;;;;;;;;;;5113360;28;20040;-72
2023/06/30 02:15:47;;;;;;;7.43;2.03;;;;;;;;;;5112277;28;20880;-72
2023/06/30 02:18:13;;;;;;;7.15;2.10;;;;;;;;;;5112128;28;20044;-72
2023/06/30 02:20:39;;;;;;;7.03;2.30;;;;;;;;;;5110330;28;20113;-72
2023/06/30 02:23:06;;;;;;;6.55;2.42;;;;;;;;;;5091418;28;20059;-72
2023/06/30 02:25:32;;;;;;;11.32;3.42;;;;;;;;;;5112876;28;20051;-72
2023/06/30 02:27:58;;;;;;;8.85;2.63;;;;;;;;;;5112376;28;20043;-72
2023/06/30 02:30:24;;;;;;;7.18;2.90;;;;;;;;;;5110471;28;20501;-72
2023/06/30 02:32:51;;;;;;;8.23;2.85;;;;;;;;;;5111102;27;20131;-72
2023/06/30 02:35:18;;;;;;;10.05;3.17;;;;;;;;;;5112393;27;20415;-72
2023/06/30 02:37:44;;;;;;;9.15;4.07;;;;;;;;;;5111044;28;20048;-72
2023/06/30 02:40:10;;;;;;;10.65;3.45;;;;;;;;;;5112193;28;20097;-72
2023/06/30 02:42:36;;;;;;;8.02;3.20;;;;;;;;;;5113625;28;20040;-72
2023/06/30 02:45:03;;;;;;;8.07;3.15;;;;;;;;;;5111871;27;20035;-72
2023/06/30 02:47:30;;;;;;;8.73;3.53;;;;;;;;;;5110151;28;20044;-72
2023/06/30 02:49:56;;;;;;;12.80;3.70;;;;;;;;;;5113668;28;20054;-72
2023/06/30 02:52:22;;;;;;;8.68;3.83;;;;;;;;;;5092863;28;20035;-72
2023/06/30 02:54:48;;;;;;;9.43;3.30;;;;;;;;;;5112722;28;20391;-72
2023/06/30 02:57:15;;;;;;;10.27;3.80;;;;;;;;;;5111818;28;20039;-72
2023/06/30 02:59:41;;;;;;;8.02;3.47;;;;;;;;;;5111879;28;20080;-72
2023/06/30 03:02:07;;;;;;;11.68;4.18;;;;;;;;;;5112075;28;20043;-72
2023/06/30 03:04:33;;;;;;;10.07;3.08;;;;;;;;;;5108392;27;20059;-72
2023/06/30 03:06:59;;;;;;;8.68;2.92;;;;;;;;;;5112123;27;20047;-72
2023/06/30 03:09:26;;;;;;;9.73;2.50;;;;;;;;;;5111389;28;20493;-72
2023/06/30 03:11:52;;;;;;;6.82;2.33;;;;;;;;;;5112250;28;20140;-72
2023/06/30 03:14:18;;;;;;;7.85;2.10;;;;;;;;;;5111854;27;20443;-72
2023/06/30 03:16:44;;;;;;;9.35;2.20;;;;;;;;;;5111908;28;20035;-72
2023/06/30 03:19:10;;;;;;;9.23;2.63;;;;;;;;;;5093696;28;20092;-72
2023/06/30 03:21:36;;;;;;;7.00;3.08;;;;;;;;;;5114303;27;20550;-72
2023/06/30 03:24:03;;;;;;;9.05;2.30;;;;;;;;;;5111794;28;20042;-69
2023/06/30 03:26:29;;;;;;;9.43;2.50;;;;;;;;;;5111497;28;20067;-70
2023/06/30 03:28:55;;;;;;;6.25;2.88;;;;;;;;;;5112224;27;20047;-71
2023/06/30 03:31:22;;;;;;;7.75;3.20;;;;;;;;;;5111291;28;20047;-71
2023/06/30 03:33:48;;;;;;;6.28;3.80;;;;;;;;;;5110639;28;20044;-71
2023/06/30 03:36:14;;;;;;;8.75;3.55;;;;;;;;;;5094806;28;20040;-72
2023/06/30 03:38:41;;;;;;;7.85;3.30;;;;;;;;;;5127648;27;20043;-71
2023/06/30 03:41:07;;;;;;;11.57;4.18;;;;;;;;;;5111222;28;20040;-71
2023/06/30 03:43:33;;;;;;;11.15;4.20;;;;;;;;;;5112077;28;20155;-71
2023/06/30 03:45:59;;;;;;;10.05;4.03;;;;;;;;;;5118774;27;20409;-71
2023/06/30 03:48:25;;;;;;;9.68;3.53;;;;;;;;;;5107118;28;20097;-71
2023/06/30 03:50:55;;;;;;;5.90;3.30;;;;;;;;;;5109578;28;20040;-71
2023/06/30 03:53:21;;;;;;;8.73;3.72;;;;;;;;;;5111057;28;20455;-71
2023/06/30 03:55:48;;;;;;;8.10;3.15;;;;;;;;;;5111421;28;20046;-71
2023/06/30 03:58:14;;;;;;;6.78;3.55;;;;;;;;;;5111709;28;20491;-71
2023/06/30 04:00:40;;;;;;;8.90;4.10;;;;;;;;;;5110839;28;20032;-71
2023/06/30 04:03:06;;;;;;;9.25;3.55;;;;;;;;;;5109685;28;20040;-71
2023/06/30 04:05:33;;;;;;;9.98;3.28;;;;;;;;;;5101776;28;20368;-71
2023/06/30 04:07:59;;;;;;;10.05;3.42;;;;;;;;;;5105161;28;20408;-71
2023/06/30 04:10:25;;;;;;;9.25;3.72;;;;;;;;;;5111050;28;20048;-71
2023/06/30 04:12:51;;;;;;;9.13;3.30;;;;;;;;;;5110108;28;20044;-71
2023/06/30 04:15:17;;;;;;;13.00;5.38;;;;;;;;;;5110962;28;20032;-71
2023/06/30 04:17:44;;;;;;;8.77;2.92;;;;;;;;;;5090653;28;20124;-71
2023/06/30 04:20:10;;;;;;;9.98;3.53;;;;;;;;;;5083823;28;20047;-71
2023/06/30 04:22:37;;;;;;;10.55;3.70;;;;;;;;;;5099818;28;20566;-71
2023/06/30 04:25:04;;;;;;;8.25;3.17;;;;;;;;;;5111252;28;20032;-71
2023/06/30 04:27:30;;;;;;;7.30;3.17;;;;;;;;;;5105516;28;20047;-71
2023/06/30 04:29:56;;;;;;;7.05;3.65;;;;;;;;;;5108516;28;20036;-71
2023/06/30 04:32:23;;;;;;;8.05;3.30;;;;;;;;;;5110194;28;20429;-71
2023/06/30 04:34:49;;;;;;;10.55;3.45;;;;;;;;;;5093379;28;20051;-71
2023/06/30 04:37:15;;;;;;;16.90;3.67;;;;;;;;;;5115229;28;20123;-71
2023/06/30 04:39:42;;;;;;;8.23;3.50;;;;;;;;;;5114768;28;20397;-71
2023/06/30 04:42:08;;;;;;;7.53;3.60;;;;;;;;;;5114850;28;20090;-72
2023/06/30 04:44:36;;;;;;;10.15;3.80;;;;;;;;;;5113280;28;20471;-72
2023/06/30 04:47:03;;;;;;;9.50;4.20;;;;;;;;;;5112689;28;20083;-72
2023/06/30 04:49:29;;;;;;;12.80;4.30;;;;;;;;;;5115872;28;20043;-72
2023/06/30 04:51:55;;;;;;;9.88;4.22;;;;;;;;;;5113882;28;20046;-72
2023/06/30 04:54:22;;;;;;;11.13;4.43;;;;;;;;;;5115684;28;20032;-72
2023/06/30 04:56:48;;;;;;;7.55;4.18;;;;;;;;;;5111404;27;20142;-72
2023/06/30 04:59:14;;;;;;;10.63;3.85;;;;;;;;;;5109022;27;20093;-72
2023/06/30 05:01:40;;;;;;;8.45;3.60;;;;;;;;;;5088139;28;20074;-72
2023/06/30 05:04:07;;;;;;;14.43;3.75;;;;;;;;;;5114103;28;20059;-72
2023/06/30 05:06:34;;;;;;;15.85;4.30;;;;;;;;;;5112360;27;20506;-72
2023/06/30 05:09:00;;;;;;;8.90;3.45;;;;;;;;;;5107884;28;20052;-72
2023/06/30 05:11:26;;;;;;;8.90;3.03;;;;;;;;;;5114215;27;20483;-72
2023/06/30 05:13:52;;;;;;;10.95;3.63;;;;;;;;;;5113444;28;20074;-72
2023/06/30 05:16:18;;;;;;;19.75;4.80;;;;;;;;;;5113805;28;20080;-72
2023/06/30 05:18:44;;;;;;;12.23;3.38;;;;;;;;;;5113933;27;20509;-72
2023/06/30 05:21:18;;;;;;;8.70;3.45;;;;;;;;;;5115879;27;20110;-72
2023/06/30 05:23:44;;;;;;;7.50;2.50;;;;;;;;;;5109514;27;20437;-72
2023/06/30 05:26:11;;;;;;;5.65;2.08;;;;;;;;;;5094411;28;20043;-72
2023/06/30 05:28:37;;;;;;;13.23;3.28;;;;;;;;;;5113233;28;20039;-72
2023/06/30 05:31:04;;;;;;;8.77;2.55;;;;;;;;;;5113202;27;20043;-72
2023/06/30 05:33:30;;;;;;;5.75;2.10;;;;;;;;;;5109847;28;20044;-72
2023/06/30 05:35:56;;;;;;;8.38;1.83;;;;;;;;;;5111887;27;20063;-72
2023/06/30 05:38:22;;;;;;;12.05;2.78;;;;;;;;;;5112541;28;20104;-72
2023/06/30 05:40:48;;;;;;;8.60;2.55;;;;;;;;;;5112943;28;20040;-72
2023/06/30 05:43:15;;;;;;;11.63;3.53;;;;;;;;;;5096452;28;20051;-72
2023/06/30 05:45:41;;;;;;;6.88;2.30;;;;;;;;;;5114675;28;20051;-72
2023/06/30 05:48:07;;;;;;;5.85;2.60;;;;;;;;;;5110687;28;20043;-72
2023/06/30 05:50:33;;;;;;;11.43;2.75;;;;;;;;;;5112758;27;20044;-72
2023/06/30 05:52:59;;;;;;;6.95;1.92;;;;;;;;;;5112178;27;20082;-72
2023/06/30 05:55:26;;;;;;;9.55;1.95;;;;;;;;;;5112222;28;20043;-72
2023/06/30 05:57:52;;;;;;;6.97;1.98;;;;;;;;;;5112600;28;20072;-72
2023/06/30 06:00:18;;;;;;;9.55;2.15;;;;;;;;;;5113222;27;20436;-72
2023/06/30 06:02:44;;;;;;;7.47;1.90;;;;;;;;;;5122974;27;20392;-73
2023/06/30 06:05:10;;;;;;;8.68;2.42;;;;;;;;;;5109336;27;20040;-73
2023/06/30 06:07:37;;;;;;;10.43;2.70;;;;;;;;;;5112647;27;20424;-70
2023/06/30 06:10:03;;;;;;;13.95;2.78;;;;;;;;;;5114373;28;20401;-73
2023/06/30 06:12:30;;;;;;;8.57;2.10;;;;;;;;;;5112693;28;20048;-73
2023/06/30 06:14:56;;;;;;;10.25;2.40;;;;;;;;;;5112017;28;20053;-73
2023/06/30 06:17:22;;;;;;;8.63;2.47;;;;;;;;;;5112837;28;20039;-74
2023/06/30 06:19:48;;;;;;;11.20;3.42;;;;;;;;;;5111611;27;20044;-74
2023/06/30 06:22:14;;;;;;;8.98;2.47;;;;;;;;;;5096548;28;20384;-74
2023/06/30 06:24:41;;;;;;;7.45;2.10;;;;;;;;;;5106378;27;20556;-76
2023/06/30 06:27:07;;;;;;;6.85;1.88;;;;;;;;;;5110412;28;20044;-73
2023/06/30 06:29:33;;;;;;;12.27;2.20;;;;;;;;;;5110709;28;20109;-73
2023/06/30 06:31:59;;;;;;;7.13;1.85;;;;;;;;;;5111545;28;20043;-74
2023/06/30 06:34:25;;;;;;;7.60;2.08;;;;;;;;;;5112097;27;20051;-74
2023/06/30 06:36:52;;;;;;;3.63;1.50;;;;;;;;;;5110243;27;20100;-75
2023/06/30 06:39:19;;;;;;;8.45;1.50;;;;;;;;;;5109674;28;20451;-75
2023/06/30 06:41:45;;;;;;;11.25;1.75;;;;;;;;;;5113725;28;20043;-75
2023/06/30 06:44:12;;;;;;;6.95;1.70;;;;;;;;;;5112771;28;20431;-75
2023/06/30 06:46:38;;;;;;;4.80;1.73;;;;;;;;;;5110339;28;20054;-74
2023/06/30 06:49:04;;;;;;;11.25;1.73;;;;;;;;;;5113127;28;20161;-74
2023/06/30 06:51:30;;;;;;;6.60;1.77;;;;;;;;;;5103905;28;20474;-71
2023/06/30 06:53:56;;;;;;;6.32;1.30;;;;;;;;;;5107648;28;20039;-75
2023/06/30 06:56:23;;;;;;;5.93;1.48;;;;;;;;;;5109106;28;20557;-75
2023/06/30 06:58:49;;;;;;;7.03;1.42;;;;;;;;;;5108227;28;20046;-75
2023/06/30 07:01:15;;;;;;;10.75;1.83;;;;;;;;;;5105028;28;20044;-75
2023/06/30 07:03:41;;;;;;;9.75;2.63;;;;;;;;;;5108142;28;20071;-75
2023/06/30 07:06:08;;;;;;;7.28;1.85;;;;;;;;;;5111522;28;20032;-75
2023/06/30 07:08:35;;;;;;;13.00;2.10;;;;;;;;;;5113238;28;20039;-74
2023/06/30 07:11:05;;;;;;;9.93;1.75;;;;;;;;;;5110534;28;20484;-74
2023/06/30 07:13:31;;;;;;;7.35;1.88;;;;;;;;;;5112226;28;20503;-74
2023/06/30 07:15:58;;;;;;;9.30;2.08;;;;;;;;;;5103773;28;20058;-74
2023/06/30 07:18:24;;;;;;;9.70;2.63;;;;;;;;;;5111915;28;20047;-74
2023/06/30 07:20:53;;;;;;;5.78;1.70;;;;;;;;;;5112132;28;20051;-75
2023/06/30 07:23:19;;;;;;;6.35;1.92;;;;;;;;;;5112754;28;20047;-75
2023/06/30 07:25:45;;;;;;;11.00;1.90;;;;;;;;;;5111238;28;20050;-74
2023/06/30 07:28:12;;;;;;;9.57;1.80;;;;;;;;;;5112526;28;20097;-73
2023/06/30 07:30:38;;;;;;;9.70;1.70;;;;;;;;;;5109478;28;20074;-73
2023/06/30 07:33:04;;;;;;;6.43;1.63;;;;;;;;;;5109735;28;20035;-74
2023/06/30 07:35:30;;;;;;;8.30;2.22;;;;;;;;;;5109192;27;20394;-74
2023/06/30 07:37:56;;;;;;;8.55;1.73;;;;;;;;;;5119663;27;20335;-75
2023/06/30 07:40:23;;;;;;;8.15;2.38;;;;;;;;;;5093226;28;20050;-75
2023/06/30 07:42:49;;;;;;;6.90;2.20;;;;;;;;;;5114231;27;20035;-74
2023/06/30 07:45:16;;;;;;;4.63;2.00;;;;;;;;;;5108290;28;20549;-74
2023/06/30 07:47:43;;;;;;;7.78;2.00;;;;;;;;;;5111297;28;20042;-70
2023/06/30 07:50:11;;;;;;;7.03;2.05;;;;;;;;;;5109723;28;20047;-70
2023/06/30 07:52:39;;;;;;;11.43;1.63;;;;;;;;;;5106120;28;20112;-71
2023/06/30 07:55:06;;;;;;;7.85;1.92;;;;;;;;;;5111746;28;20043;-72
2023/06/30 07:57:32;;;;;;;5.38;1.90;;;;;;;;;;5111293;28;20109;-72
2023/06/30 07:59:58;;;;;;;8.50;1.48;;;;;;;;;;5110441;28;20457;-72
2023/06/30 08:02:24;;;;;;;7.40;1.60;;;;;;;;;;5107668;28;20046;-71
2023/06/30 08:04:51;;;;;;;9.70;1.50;;;;;;;;;;5101095;28;20046;-73
2023/06/30 08:07:17;;;;;;;9.85;1.75;;;;;;;;;;5108287;28;20502;-72
2023/06/30 08:09:43;;;;;;;6.22;1.20;;;;;;;;;;5108357;28;20507;-72
2023/06/30 08:12:12;;;;;;;3.97;1.45;;;;;;;;;;5115136;28;20396;-73
2023/06/30 08:14:39;;;;;;;5.10;1.52;;;;;;;;;;5108526;28;20051;-73
2023/06/30 08:17:05;;;;;;;5.35;1.35;;;;;;;;;;5110485;28;20047;-71
2023/06/30 08:19:31;;;;;;;8.05;1.50;;;;;;;;;;5109766;28;20482;-72
2023/06/30 08:21:57;;;;;;;8.52;1.42;;;;;;;;;;5102938;28;20035;-72
2023/06/30 08:24:24;;;;;;;4.88;0.98;;;;;;;;;;5111245;28;20052;-72
2023/06/30 08:26:50;;;;;;;6.95;1.88;;;;;;;;;;5110440;28;20044;-73
2023/06/30 08:29:16;;;;;;;6.05;1.33;;;;;;;;;;5111059;28;20153;-72
2023/06/30 08:31:42;;;;;;;6.60;1.35;;;;;;;;;;5113020;28;20126;-72
2023/06/30 08:34:10;;;;;;;8.43;1.98;;;;;;;;;;5120107;28;20051;-72
2023/06/30 08:36:36;;;;;;;4.97;1.20;;;;;;;;;;5091969;28;20038;-72
2023/06/30 08:39:05;;;;;;;5.90;1.40;;;;;;;;;;5117964;28;20048;-72
2023/06/30 08:41:33;;;;;;;5.82;1.20;;;;;;;;;;5093445;28;20058;-72
2023/06/30 08:43:59;;;;;;;3.58;1.17;;;;;;;;;;5111219;28;20376;-72
2023/06/30 08:46:26;;;;;;;7.93;1.27;;;;;;;;;;5114040;28;20192;-71
2023/06/30 08:48:53;;;;;;;8.15;1.17;;;;;;;;;;5110612;28;20122;-72
2023/06/30 08:51:19;;;;;;;4.13;1.10;;;;;;;;;;5107286;28;20090;-71
2023/06/30 08:53:47;;;;;;;5.80;1.75;;;;;;;;;;5111126;28;20119;-71
2023/06/30 08:56:15;;;;;;;5.13;1.42;;;;;;;;;;5111755;28;20498;-71
2023/06/30 08:58:41;;;;;;;4.72;1.33;;;;;;;;;;5109992;28;20092;-72
2023/06/30 09:01:08;;;;;;;8.45;1.75;;;;;;;;;;5108360;28;20093;-72
2023/06/30 09:03:34;;;;;;;4.90;1.60;;;;;;;;;;5106665;28;20040;-72
2023/06/30 09:06:01;;;;;;;4.95;1.70;;;;;;;;;;5103572;28;20142;-71
2023/06/30 09:08:32;;;;;;;10.20;1.95;;;;;;;;;;5110172;28;20052;-72
2023/06/30 09:10:59;;;;;;;8.98;1.90;;;;;;;;;;5108260;28;20039;-72
2023/06/30 09:13:26;;;;;;;5.90;1.23;;;;;;;;;;5109140;28;20573;-72
2023/06/30 09:15:55;;;;;;;6.57;1.63;;;;;;;;;;5109424;28;20123;-71
2023/06/30 09:18:21;;;;;;;5.18;1.60;;;;;;;;;;5108522;28;20051;-71
2023/06/30 09:20:48;;;;;;;4.55;1.60;;;;;;;;;;5093127;28;20044;-72
2023/06/30 09:23:15;;;;;;;7.55;1.60;;;;;;;;;;5144528;27;20123;-72
2023/06/30 09:25:42;;;;;;;3.83;1.52;;;;;;;;;;5114583;28;20043;-72
2023/06/30 09:28:10;;;;;;;4.95;1.85;;;;;;;;;;5113637;28;20149;-71
2023/06/30 09:30:38;;;;;;;6.60;1.40;;;;;;;;;;5112738;28;20043;-71
2023/06/30 09:33:06;;;;;;;5.72;1.23;;;;;;;;;;5114066;28;20039;-71
2023/06/30 09:35:39;;;;;;;3.78;1.40;;;;;;;;;;5113506;28;20460;-72
2023/06/30 09:38:28;;;;;;;6.85;1.63;;;;;;;;;;5114261;27;20079;-72
2023/06/30 09:40:54;;;;;;;4.97;1.15;;;;;;;;;;5113406;28;20047;-72
2023/06/30 09:43:21;;;;;;;9.07;1.73;;;;;;;;;;5113667;28;20055;-72
2023/06/30 09:45:53;;;;;;;4.18;1.25;;;;;;;;;;5113840;28;20052;-72
2023/06/30 09:48:20;;;;;;;6.43;2.00;;;;;;;;;;5113387;27;20490;-72
2023/06/30 09:50:46;;;;;;;9.90;1.50;;;;;;;;;;5112156;27;20068;-72
2023/06/30 09:53:18;;;;;;;4.13;1.40;;;;;;;;;;5111451;28;20052;-72
2023/06/30 09:55:51;;;;;;;2.28;0.95;;;;;;;;;;5111423;28;20036;-72
2023/06/30 09:58:17;;;;;;;;;;;;;;;;;;5105615;28;20132;-72
2023/06/30 10:00:44;;;;;;;7.30;1.80;;;;;;;;;;5112513;27;19927;-72
2023/06/30 10:03:10;;;;;;;4.13;1.10;;;;;;;;;;5108547;27;20040;-72
2023/06/30 10:05:38;;;;;;;11.43;1.77;;;;;;;;;;5114132;27;20398;-72
2023/06/30 10:08:04;;;;;;;6.75;1.33;;;;;;;;;;5105584;27;20117;-72
2023/06/30 10:10:31;;;;;;;10.20;1.50;;;;;;;;;;5111959;28;20552;-72
2023/06/30 10:12:58;;;;;;;2.97;1.00;;;;;;;;;;5111503;28;20079;-72
2023/06/30 10:15:25;;;;;;;6.72;1.33;;;;;;;;;;5111638;28;20043;-72
2023/06/30 10:17:52;;;;;;;5.60;1.45;;;;;;;;;;5095606;28;20093;-72
2023/06/30 10:20:18;;;;;;;7.03;1.77;;;;;;;;;;5114126;28;20456;-71
2023/06/30 10:22:45;;;;;;;6.70;1.92;;;;;;;;;;5113472;27;20158;-73
2023/06/30 10:25:11;;;;;;;5.30;1.50;;;;;;;;;;5108565;28;20083;-73
2023/06/30 10:27:38;;;;;;;6.40;1.40;;;;;;;;;;5105494;27;20088;-72
2023/06/30 10:30:05;;;;;;;3.22;1.00;;;;;;;;;;5111489;28;20113;-73
2023/06/30 10:32:31;;;;;;;10.23;3.00;;;;;;;;;;5114024;28;20071;-74
2023/06/30 10:34:58;;;;;;;6.07;1.48;;;;;;;;;;5112509;28;20100;-71
2023/06/30 10:37:26;;;;;;;5.07;1.15;;;;;;;;;;5112616;28;20120;-71
2023/06/30 10:39:52;;;;;;;3.45;1.13;;;;;;;;;;5109672;27;20039;-71
2023/06/30 10:42:20;;;;;;;5.05;1.27;;;;;;;;;;5109821;28;20445;-70
2023/06/30 10:44:48;;;;;;;5.03;1.13;;;;;;;;;;5107117;27;20061;-71
2023/06/30 10:47:14;;;;;;;6.05;1.55;;;;;;;;;;5111219;28;20517;-71
2023/06/30 10:49:41;;;;;;;3.88;1.33;;;;;;;;;;5108601;28;20047;-71
2023/06/30 10:52:09;;;;;;;3.92;1.10;;;;;;;;;;5111864;28;20039;-71
2023/06/30 10:54:42;;;;;;;6.15;1.40;;;;;;;;;;5108355;27;20387;-72
2023/06/30 10:57:08;;;;;;;;;;;;;;;;;;5111671;28;20395;-72
2023/06/30 10:59:41;;;;;;;6.57;1.50;;;;;;;;;;5146552;27;19924;-71
2023/06/30 11:02:21;;;;;;;5.05;1.50;;;;;;;;;;5112837;28;20046;-72
2023/06/30 11:04:49;;;;;;;7.10;1.75;;;;;;;;;;5108572;27;20039;-73
2023/06/30 11:07:26;;;;;;;5.25;1.23;;;;;;;;;;5110968;27;20106;-73
2023/06/30 11:09:52;;;;;;;4.45;1.33;;;;;;;;;;5111668;27;20155;-77
2023/06/30 11:12:19;;;;;;;3.47;1.40;;;;;;;;;;5104914;27;20040;-73
2023/06/30 11:14:54;;;;;;;6.10;1.40;;;;;;;;;;5110757;27;20069;-76
2023/06/30 11:17:21;;;;;;;7.10;1.35;;;;;;;;;;5097499;28;20122;-73
2023/06/30 11:20:17;;;;;;;16.15;1.70;;;;;;;;;;5112472;28;20039;-73
2023/06/30 11:22:55;;;;;;;7.40;1.45;;;;;;;;;;5079975;28;20085;-73
2023/06/30 11:25:21;;;;;;;4.75;1.55;;;;;;;;;;5110695;27;20039;-73
2023/06/30 11:27:47;;;;;;;5.45;1.42;;;;;;;;;;5096973;27;20543;-71
2023/06/30 11:30:18;;;;;;;6.60;1.52;;;;;;;;;;5115974;27;20117;-72
2023/06/30 11:32:45;;;;;;;5.10;1.60;;;;;;;;;;5108775;28;20043;-72
2023/06/30 11:35:17;;;;;;;10.15;2.03;;;;;;;;;;5110504;28;20043;-72
2023/06/30 11:37:53;;;;;;;6.32;1.85;;;;;;;;;;5111549;28;20048;-72
2023/06/30 11:40:21;;;;;;;4.47;1.65;;;;;;;;;;5110710;28;20476;-71
2023/06/30 11:42:48;;;;;;;6.00;1.58;;;;;;;;;;5111222;28;20130;-72
2023/06/30 11:45:19;;;;;;;10.23;1.60;;;;;;;;;;5110104;28;20158;-72
2023/06/30 11:47:48;;;;;;;5.47;1.33;;;;;;;;;;5109898;28;20083;-72
2023/06/30 11:50:15;;;;;;;7.70;1.92;;;;;;;;;;5111263;28;20050;-72
2023/06/30 11:52:41;;;;;;;5.90;1.40;;;;;;;;;;5093654;28;20387;-72
2023/06/30 11:55:08;;;;;;;4.68;1.70;;;;;;;;;;5112336;28;20040;-71
2023/06/30 11:57:36;;;;;;;4.68;1.38;;;;;;;;;;5106200;27;20493;-74
2023/06/30 12:00:12;;;;;;;5.60;1.85;;;;;;;;;;5107477;28;20118;-74
2023/06/30 12:02:43;;;;;;;13.25;1.60;;;;;;;;;;5108303;28;20526;-75
2023/06/30 12:05:14;;;;;;;10.27;1.60;;;;;;;;;;5109492;27;20126;-74
2023/06/30 12:07:41;;;;;;;6.07;1.67;;;;;;;;;;5109859;28;20077;-77
2023/06/30 12:10:08;;;;;;;12.77;2.00;;;;;;;;;;5108278;28;20123;-77
2023/06/30 12:12:35;;;;;;;6.45;1.58;;;;;;;;;;5109590;28;20056;-77
2023/06/30 12:15:07;;;;;;;7.07;1.40;;;;;;;;;;5097503;28;20043;-79
2023/06/30 12:17:36;;;;;;;5.15;1.30;;;;;;;;;;5098067;28;20071;-78
2023/06/30 12:20:02;;;;;;;5.45;1.45;;;;;;;;;;5101084;28;20100;-78
2023/06/30 12:22:29;;;;;;;7.63;1.83;;;;;;;;;;5118834;27;20040;-78
2023/06/30 12:24:56;;;;;;;6.60;1.42;;;;;;;;;;5104184;28;20071;-78
2023/06/30 12:27:22;;;;;;;3.88;1.45;;;;;;;;;;5104351;28;20092;-78
2023/06/30 12:29:48;;;;;;;5.15;1.30;;;;;;;;;;5110833;28;20483;-78
2023/06/30 12:32:15;;;;;;;7.05;1.40;;;;;;;;;;5110404;28;20145;-78
2023/06/30 12:34:41;;;;;;;4.93;1.30;;;;;;;;;;5093025;28;20051;-78
2023/06/30 12:37:07;;;;;;;6.35;1.50;;;;;;;;;;5102651;28;20043;-78
2023/06/30 12:39:34;;;;;;;3.33;1.50;;;;;;;;;;5109337;28;20064;-78
2023/06/30 12:42:00;;;;;;;5.32;1.38;;;;;;;;;;5106847;28;20070;-78
2023/06/30 12:44:26;;;;;;;6.60;1.38;;;;;;;;;;5101269;28;20042;-78
2023/06/30 12:46:59;;;;;;;4.85;1.45;;;;;;;;;;5111298;28;20039;-78
2023/06/30 12:49:28;;;;;;;5.40;1.75;;;;;;;;;;5109094;28;20479;-78
2023/06/30 12:51:54;;;;;;;5.80;2.00;;;;;;;;;;5109901;28;20047;-78
2023/06/30 12:54:21;;;;;;;5.07;1.60;;;;;;;;;;5111942;28;20079;-78
2023/06/30 12:56:47;;;;;;;8.43;1.85;;;;;;;;;;5111985;28;20044;-78
2023/06/30 12:59:13;;;;;;;6.85;1.75;;;;;;;;;;5113102;28;20321;-78
2023/06/30 13:01:39;;;;;;;6.18;2.17;;;;;;;;;;5114686;28;20127;-81
2023/06/30 13:04:06;;;;;;;5.88;1.55;;;;;;;;;;5112217;28;20047;-81
2023/06/30 13:06:32;;;;;;;4.97;1.80;;;;;;;;;;5109206;28;20444;-75
2023/06/30 13:08:58;;;;;;;5.40;2.20;;;;;;;;;;5111825;27;20047;-78
2023/06/30 13:11:24;;;;;;;5.97;1.67;;;;;;;;;;5113925;27;20032;-79
2023/06/30 13:13:51;;;;;;;7.78;2.22;;;;;;;;;;5109883;28;20040;-78
2023/06/30 13:16:17;;;;;;;24.00;3.22;;;;;;;;;;5113165;28;20359;-78
2023/06/30 13:18:43;;;;;;;9.52;2.30;;;;;;;;;;5104930;27;20044;-79
2023/06/30 13:21:09;;;;;;;5.95;1.70;;;;;;;;;;5108711;27;20521;-78
2023/06/30 13:23:35;;;;;;;5.18;1.65;;;;;;;;;;5112355;28;20043;-79
2023/06/30 13:26:02;;;;;;;4.93;1.90;;;;;;;;;;5113893;28;20148;-79
2023/06/30 13:28:29;;;;;;;5.60;1.85;;;;;;;;;;5113635;28;20398;-78
2023/06/30 13:30:55;;;;;;;8.25;2.17;;;;;;;;;;5111485;27;20039;-79
2023/06/30 13:33:21;;;;;;;8.13;2.05;;;;;;;;;;5109341;28;20044;-79
2023/06/30 13:35:48;;;;;;;5.53;1.80;;;;;;;;;;5112897;28;20044;-79
2023/06/30 13:38:14;;;;;;;4.35;1.90;;;;;;;;;;5110394;28;20429;-79
2023/06/30 13:40:40;;;;;;;7.07;2.45;;;;;;;;;;5095088;28;20091;-79
2023/06/30 13:43:06;;;;;;;17.13;2.97;;;;;;;;;;5096397;28;20047;-79
2023/06/30 13:45:32;;;;;;;7.43;2.42;;;;;;;;;;5112075;28;20067;-79
2023/06/30 13:47:59;;;;;;;8.57;2.55;;;;;;;;;;5110809;27;20047;-79
2023/06/30 13:50:25;;;;;;;6.60;2.33;;;;;;;;;;5113226;28;20051;-79
2023/06/30 13:52:52;;;;;;;6.15;2.60;;;;;;;;;;5095552;28;20122;-79
2023/06/30 13:55:18;;;;;;;13.55;2.42;;;;;;;;;;5110133;27;20039;-80
2023/06/30 13:57:44;;;;;;;6.57;2.22;;;;;;;;;;5094732;28;20452;-80
2023/06/30 14:00:11;;;;;;;12.98;7.07;;;;;;;;;;5111929;28;20127;-73
2023/06/30 14:02:37;;;;;;;9.95;3.38;;;;;;;;;;5109759;28;20114;-80
2023/06/30 14:05:03;;;;;;;9.48;2.53;;;;;;;;;;5112295;28;20092;-80
2023/06/30 14:07:29;;;;;;;26.77;4.05;;;;;;;;;;5111411;28;20043;-80
2023/06/30 14:09:57;;;;;;;4.32;1.92;;;;;;;;;;5107904;27;20091;-80
2023/06/30 14:12:24;;;;;;;5.88;2.10;;;;;;;;;;5092660;28;20046;-79
2023/06/30 14:14:50;;;;;;;4.85;2.25;;;;;;;;;;5111590;28;20135;-79
2023/06/30 14:17:16;;;;;;;6.55;2.40;;;;;;;;;;5114606;28;20032;-79
2023/06/30 14:19:42;;;;;;;4.70;2.28;;;;;;;;;;5112049;28;20082;-79
2023/06/30 14:22:09;;;;;;;11.95;2.92;;;;;;;;;;5092884;28;20043;-78
2023/06/30 14:24:35;;;;;;;7.70;2.90;;;;;;;;;;5111916;28;20085;-78
2023/06/30 14:27:02;;;;;;;10.98;3.42;;;;;;;;;;5111600;28;20398;-78
2023/06/30 14:29:28;;;;;;;7.72;3.38;;;;;;;;;;5111368;28;20058;-78
2023/06/30 14:31:54;;;;;;;7.45;3.00;;;;;;;;;;5112704;27;20040;-78
2023/06/30 14:34:20;;;;;;;8.07;2.97;;;;;;;;;;5113260;28;20084;-78
2023/06/30 14:36:47;;;;;;;12.85;3.30;;;;;;;;;;5111640;28;20048;-78
2023/06/30 14:39:13;;;;;;;8.57;3.20;;;;;;;;;;5109938;27;20091;-70